Tropical Cyclones
[Index]
Main Index Home Page Stock Weather Photos Extreme Storms Discussion Storm News and Storm Chasing Reports Tropical Cyclones / Hurricanes / Typhoons Weather Data and Links Wild Fires / Bushfires Weather Observation Techniques Weather Picture Catalogue Tornado Pictures and Reports Stock Video Footage and DVDs for sale
Season 2014-2015 Tropical Cyclone KATE Track Map
Season 2014-2015 Summaries (Operational Data): [AU] [SIO] [SPAC] [SH]
<<- Previous TC | 2014-2015 Season | Next TC ->>

click for intensity scale information  Lat/long Grid: Show Hide

 Date Labels: Show Hide

Operational Tropical Cyclone Data : JTWC Advisories

Name: KATE
Number: 1504

21 Dec 2014 18:00 UTC to 04 Jan 2015 12:00 UTC

    date/time    lat    long     hPa   cat  kts
2014-12-21 18    6.7    98.5    1010         15          
2014-12-22 00    7.7    98.9    1010         15          
2014-12-22 06    7.3    99.9    1010         15          
2014-12-22 12    7.9    99.9    1010         15          
2014-12-22 18    8.4   100.0    1006         15          
2014-12-23 00    8.9   100.2    1006         20          
2014-12-23 06    9.2   100.4    1007         20          
2014-12-23 12    9.6   100.5    1004         25          
2014-12-23 18    9.9   100.4    1004         25          
2014-12-24 00   10.3    99.9    1004         25          
2014-12-24 06   10.8    99.2    1000         30          
2014-12-24 12   11.3    98.5    1000         30          
2014-12-24 18   11.5    97.8    1000         30          
2014-12-25 00   11.8    97.5     996    1    35          
2014-12-25 06   11.8    97.5     996    1    35          
2014-12-25 12   12.3    96.4     996    1    35          
2014-12-25 18   12.3    95.3     993    1    40          
2014-12-26 00   12.3    94.8     989    1    45          
2014-12-26 06   12.3    94.5     974    3    65          
2014-12-26 12   12.4    94.3     956    4    90          
2014-12-26 18   12.7    94.0     944    4   105          
2014-12-27 00   12.9    93.7     944    4   105          
2014-12-27 06   13.0    93.6     944    4   105          
2014-12-27 12   13.0    93.3     948    4   100          
2014-12-27 18   13.1    93.0     956    4    90          
2014-12-28 00   13.3    92.7     956    4    90          
2014-12-28 06   13.6    92.6     956    4    90          
2014-12-28 12   13.9    92.4     963    3    80          
2014-12-28 18   14.2    92.2     970    3    70          
2014-12-29 00   14.4    92.1     974    3    65          
2014-12-29 06   14.7    91.9     974    3    65          
2014-12-29 12   15.1    91.6     974    3    65          
2014-12-29 18   15.7    91.2     967    3    75          
2014-12-30 00   16.4    90.6     944    4   105          
2014-12-30 06   16.9    90.0     944    4   105          
2014-12-30 12   17.8    89.5     944    4   105          
2014-12-30 18   18.8    88.6     952    4    95          
2014-12-31 00   19.4    87.9     959    3    85          
2014-12-31 06   20.0    87.1     974    3    65          
2014-12-31 12   20.5    86.0     996    1    35          
2014-12-31 18   21.4    84.9    1000         30          
2015-01-01 00   22.4    83.8    1000         30          
2015-01-01 06   23.0    83.1    1004         30          
2015-01-01 12   23.9    82.0    1004         25          
2015-01-01 18   24.2    81.3    1004         25          
2015-01-02 00   24.5    80.7    1004         25          
2015-01-02 06   25.4    79.9    1004         25          
2015-01-02 12   26.1    79.8    1004         25          
2015-01-02 18   26.7    80.0    1007         20          
2015-01-04 12   30.0    88.0                             
Winds are 10-min average.

Tropical cyclone tracks developed by Michael Bath using operational warnings and advisories and Google Maps.


[Australian Severe Weather index] [Copyright Notice] [Email Contacts] [Search This Site] [Privacy Policy]
Document: tropical_cyclone_kate.htm Updated: 2 May 2017